»·PEaware :: UAL965 KPDX-KSFO

UAL965 :: KPDX-KSFO

FLIGHT INFORMATION

Flight Status: Arrived
Operator:
United Airlines
More flights by this operator :: More flights under this callsign
Pilot: Saso K. (7898)
Aircraft: BOEING 737-300
(B733)
More flights by this aircraft type
Origin: KPDX Portland Intl
United States
Destination: KSFO San Francisco Intl
United States
More flights between these airports :: More routes between these airports
Route: MINNE5 FAMUK Q3 FOWND MLBEC BDEGA2
File this flight plan on PilotEdge
Remarks:
Altitude:
(Current/Filed)
35,000ft
Speed:
(Current/Filed)
430kts
Departed: 05-Jan-17 02:47 PM
Arrived: 05-Jan-17 04:23 PM
Distance/Time
Traveled:
478nm/1:36
Distance/Time
To Go:
Arrived

Flight Plot

Page will automatically refresh every two minutes.


Map Options




Map Legend


Flown Route
Filed Route
Departure Airport
Arrival Airport
Navaid (VOR, NDB)
Fix

Horizontal Profiles

Position Reports

Time Latitude Longitude Heading Altitude Ground
Speed
05-Jan-17 14:17 45.590040 -122.591052 209 23ft 0kts
05-Jan-17 14:18 45.590040 -122.591052 209 23ft 0kts
05-Jan-17 14:19 45.590040 -122.591052 209 23ft 0kts
05-Jan-17 14:20 45.590040 -122.591052 209 23ft 0kts
05-Jan-17 14:21 45.590040 -122.591052 209 23ft 0kts
05-Jan-17 14:22 45.590040 -122.591052 209 23ft 0kts
05-Jan-17 14:23 45.590040 -122.591052 209 23ft 0kts
05-Jan-17 14:24 45.590040 -122.591052 209 23ft 0kts
05-Jan-17 14:25 45.590040 -122.591052 209 23ft 0kts
05-Jan-17 14:26 45.590040 -122.591052 209 23ft 0kts
05-Jan-17 14:27 45.590040 -122.591052 209 23ft 0kts
05-Jan-17 14:28 45.590040 -122.591052 209 23ft 0kts
05-Jan-17 14:29 45.590040 -122.591052 209 23ft 0kts
05-Jan-17 14:30 45.590040 -122.591052 209 23ft 0kts
05-Jan-17 14:31 45.590040 -122.591052 209 23ft 0kts
05-Jan-17 14:32 45.590040 -122.591052 209 23ft 0kts
05-Jan-17 14:33 45.590040 -122.591052 209 23ft 0kts
05-Jan-17 14:34 45.590040 -122.591052 209 23ft 0kts
05-Jan-17 14:35 45.590040 -122.591052 209 23ft 0kts
05-Jan-17 14:36 45.590471 -122.590702 209 23ft 2kts
05-Jan-17 14:37 45.590806 -122.590638 118 23ft 0kts
05-Jan-17 14:38 45.590806 -122.590638 118 23ft 0kts
05-Jan-17 14:39 45.590806 -122.590638 118 23ft 0kts
05-Jan-17 14:40 45.590480 -122.589955 120 23ft 7kts
05-Jan-17 14:41 45.589838 -122.586496 350 23ft 10kts
05-Jan-17 14:42 45.592106 -122.591937 299 23ft 20kts
05-Jan-17 14:43 45.594150 -122.597840 240 27ft 12kts
05-Jan-17 14:44 45.595318 -122.601754 13 27ft 7kts
05-Jan-17 14:45 45.595925 -122.600318 28 27ft 8kts
05-Jan-17 14:46 45.596288 -122.599443 117 27ft 7kts
05-Jan-17 14:47 45.580481 -122.559015 111 895ft 180kts
05-Jan-17 14:48 45.567663 -122.483001 98 2992ft 239kts
05-Jan-17 14:49 45.551648 -122.390133 101 6216ft 253kts
05-Jan-17 14:50 45.507649 -122.321556 172 9061ft 287kts
05-Jan-17 14:51 45.427963 -122.340977 227 11082ft 336kts
05-Jan-17 14:52 45.384870 -122.458722 247 13992ft 350kts
05-Jan-17 14:53 45.344273 -122.585225 248 16662ft 366kts
05-Jan-17 14:54 45.302413 -122.715923 248 19053ft 382kts
05-Jan-17 14:55 45.257917 -122.854190 249 21319ft 396kts
05-Jan-17 14:56 45.193899 -122.973715 202 23204ft 428kts
05-Jan-17 14:57 45.075781 -123.001418 189 25040ft 444kts
05-Jan-17 14:58 44.953436 -123.029691 190 26857ft 455kts
05-Jan-17 14:59 44.840623 -123.055851 190 28261ft 466kts
05-Jan-17 15:00 44.714575 -123.084946 191 30218ft 463kts
05-Jan-17 15:01 44.588777 -123.113869 191 31930ft 461kts
05-Jan-17 15:02 44.463576 -123.135713 181 33471ft 462kts
05-Jan-17 15:03 44.336289 -123.130075 181 34810ft 460kts
05-Jan-17 15:04 44.209280 -123.125547 181 35321ft 460kts
05-Jan-17 15:05 44.083522 -123.121081 181 35285ft 456kts
05-Jan-17 15:06 43.957341 -123.116622 181 35295ft 457kts
05-Jan-17 15:07 43.837796 -123.112409 181 35290ft 457kts
05-Jan-17 15:08 43.712608 -123.108021 181 35294ft 457kts
05-Jan-17 15:09 43.586638 -123.103621 181 35281ft 457kts
05-Jan-17 15:10 43.460406 -123.099223 181 35264ft 457kts
05-Jan-17 15:11 43.334330 -123.094850 181 35266ft 457kts
05-Jan-17 15:12 43.208173 -123.090501 181 35265ft 457kts
05-Jan-17 15:13 43.086666 -123.086328 181 35265ft 457kts
05-Jan-17 15:14 42.969090 -123.082300 182 35280ft 452kts
05-Jan-17 15:15 42.852353 -123.078304 182 35244ft 434kts
05-Jan-17 15:16 42.733797 -123.074315 182 35237ft 440kts
05-Jan-17 15:17 42.614072 -123.070250 182 35226ft 438kts
05-Jan-17 15:18 42.494147 -123.066213 182 35229ft 439kts
05-Jan-17 15:19 42.373233 -123.062295 182 35230ft 440kts
05-Jan-17 15:20 42.259568 -123.058617 182 35228ft 440kts
05-Jan-17 15:21 42.142386 -123.054835 182 35228ft 440kts
05-Jan-17 15:22 42.023118 -123.051005 182 35228ft 440kts
05-Jan-17 15:23 41.907949 -123.047319 182 35226ft 440kts
05-Jan-17 15:24 41.800615 -123.043898 182 35221ft 440kts
05-Jan-17 15:25 41.683733 -123.040184 182 35220ft 440kts
05-Jan-17 15:26 41.565364 -123.036437 183 35220ft 440kts
05-Jan-17 15:27 41.448354 -123.032749 183 35219ft 440kts
05-Jan-17 15:28 41.329918 -123.029027 183 35220ft 440kts
05-Jan-17 15:29 41.219386 -123.026085 183 35219ft 440kts
05-Jan-17 15:30 41.101925 -123.022545 183 35219ft 440kts
05-Jan-17 15:31 40.984360 -123.018968 187 35169ft 432kts
05-Jan-17 15:32 40.878557 -123.015803 188 35100ft 424kts
05-Jan-17 15:33 40.762227 -123.012345 187 35136ft 427kts
05-Jan-17 15:34 40.645469 -123.008860 188 35127ft 426kts
05-Jan-17 15:35 40.530181 -123.005426 188 35129ft 426kts
05-Jan-17 15:36 40.414080 -123.002001 187 35132ft 426kts
05-Jan-17 15:37 40.297376 -122.998540 188 35127ft 427kts
05-Jan-17 15:38 40.181483 -122.995121 188 35133ft 426kts
05-Jan-17 15:39 40.066534 -122.991765 188 35123ft 426kts
05-Jan-17 15:40 39.950532 -122.988373 188 35116ft 427kts
05-Jan-17 15:41 39.869621 -122.986004 188 35118ft 426kts
05-Jan-17 15:42 39.783991 -122.983525 188 35113ft 426kts
05-Jan-17 15:43 39.667617 -122.980156 188 35100ft 426kts
05-Jan-17 15:44 39.550386 -122.976773 188 35101ft 427kts
05-Jan-17 15:45 39.434217 -122.973414 188 35103ft 426kts
05-Jan-17 15:46 39.317423 -122.970071 188 35100ft 427kts
05-Jan-17 15:47 39.199841 -122.966703 188 35101ft 428kts
05-Jan-17 15:48 39.082066 -122.963262 187 35101ft 428kts
05-Jan-17 15:49 38.964635 -122.959089 189 35106ft 424kts
05-Jan-17 15:50 38.883099 -122.957420 190 34993ft 414kts
05-Jan-17 15:51 38.837321 -122.948803 178 33627ft 440kts
05-Jan-17 15:52 38.726275 -122.915043 177 30436ft 453kts
05-Jan-17 15:53 38.604782 -122.879089 176 27231ft 454kts
05-Jan-17 15:54 38.486963 -122.844392 176 25215ft 428kts
05-Jan-17 15:55 38.375176 -122.811601 175 23042ft 413kts
05-Jan-17 15:56 38.266073 -122.779634 175 20863ft 400kts
05-Jan-17 15:57 38.161288 -122.747958 174 18800ft 389kts
05-Jan-17 15:58 38.058871 -122.717860 174 16806ft 378kts
05-Jan-17 15:59 37.959522 -122.689067 173 14880ft 367kts
05-Jan-17 16:00 37.872406 -122.645246 143 13080ft 372kts
05-Jan-17 16:01 37.796774 -122.564314 142 11324ft 360kts
05-Jan-17 16:02 37.727991 -122.491346 143 11053ft 316kts
05-Jan-17 16:03 37.660633 -122.421529 142 11102ft 326kts
05-Jan-17 16:04 37.591606 -122.358604 160 10979ft 318kts
05-Jan-17 16:05 37.516485 -122.314666 159 10998ft 319kts
05-Jan-17 16:06 37.437789 -122.268444 159 11003ft 319kts
05-Jan-17 16:07 37.358515 -122.221994 158 10208ft 324kts
05-Jan-17 16:08 37.280859 -122.176562 157 8916ft 310kts
05-Jan-17 16:09 37.205081 -122.132054 150 7549ft 303kts
05-Jan-17 16:10 37.190660 -122.047706 42 6167ft 267kts
05-Jan-17 16:11 37.253613 -122.027238 3 6001ft 245kts
05-Jan-17 16:12 37.317669 -122.017410 3 5990ft 234kts
05-Jan-17 16:13 37.376689 -122.007840 3 6015ft 212kts
05-Jan-17 16:14 37.429663 -121.999221 349 5955ft 188kts
05-Jan-17 16:15 37.462074 -122.045246 303 4839ft 187kts
05-Jan-17 16:16 37.488299 -122.100298 303 3789ft 190kts
05-Jan-17 16:17 37.519834 -122.150688 313 3066ft 185kts
05-Jan-17 16:18 37.547045 -122.203566 298 2489ft 172kts
05-Jan-17 16:19 37.567449 -122.253115 298 1807ft 157kts
05-Jan-17 16:20 37.587006 -122.299618 299 1014ft 137kts
05-Jan-17 16:21 37.604230 -122.340726 298 337ft 135kts
05-Jan-17 16:22 37.619412 -122.376687 298 24ft 65kts
05-Jan-17 16:23 37.622129 -122.385568 264 29ft 2kts
05-Jan-17 16:24 37.621383 -122.387628 190 30ft 8kts
05-Jan-17 16:25 37.620696 -122.387780 200 30ft 0kts
05-Jan-17 16:26 37.620696 -122.387780 200 30ft 0kts

Navigation Log

Ident Type
Flight plan parsing failed, navigation log unavailable